Durham, NC

3:18 AM EST on February 27, 2017 (GMT -0500)
South Durham | | Change Station

Elev 404 ft 35.99 °N, 78.90 °W | Updated 17 seconds ago

Clear
Clear
29.5 °F
Feels Like 30 °F
N
0.0
Wind Variable Wind from East

Today
High -- | Low -- °F
--% Chance of Precip.
Yesterday
High -- | Low -- °F
Precip. -- in
Pressure 30.34 in
Visibility 10.0 miles
Clouds Few 25000 ft
Windchill 30 °F
Dew Point 27 °F
Humidity 93%
Rainfall 0.00 in
Snow Depth Not available.
6:48 AM 6:08 PM
New Moon, 1% visible
METAR KRDU 270751Z 00000KT 10SM FEW250 03/M05 A3033 RMK AO2 SLP272 T00281050
Pressure 30.34 in
Visibility 10.0 miles
Clouds Few 25000 ft
Windchill 30 °F
Dew Point 27 °F
Humidity 93%
Rainfall 0.00 in
Snow Depth Not available.
6:48 AM 6:08 PM
New Moon, 1% visible
METAR KRDU 270751Z 00000KT 10SM FEW250 03/M05 A3033 RMK AO2 SLP272 T00281050

Get Your Daily Forecast Email!

Thanks for signing up!

Be on the lookout for a verification email in your inbox.

You'll start receiving the daily forecast at 8 AM.

×

10-Day Weather Forecast

Almanac

Astronomy

Feb. 27, 2017 Rise Set
Actual Time
Civil Twilight
Nautical Twilight
Astronomical Twilight
Moon
Length of Visible Light
Length of Day
Tomorrow will be .
, % of the Moon is Illuminated

Today's Extremes

State Highs State Lows

Community

WunderPhotos

Upload Photos

1,962,540 photos uploaded!

WunderBlog® & News

Nearby

Air Quality

  Air Quality AQ Index Pollutant
Not available.

Snow Depth

Station Depth Elevation

Earthquake Activity

City Distance Mag. Time & Date
Minimum magnitude displayed is 2.5.

Coastal Water Temperatures

Place Temperature

Stations

Nearby Weather Stations

Station Location Temp. Windchill Dew Point Humidity Wind Precip. Elev Updated Type
                   

Watches & Warnings

There are currently no watches in effect.